الصفحة الرئيسية
METAR-TAF:

METAR-TAF

مطار :

مطار بوانت نوار

Pointe-Noire, كونغو

دائرة عرض: 04-49S, خط طول: 011-54E, ارتفاع: 17 متر

مراقبة الطقس الحالي

تاريخ ووقت الإصدار 1ساعة و 3 دقيقة قبل الساعة 04:00UTC
ريح 3 عقدةمن اتجاهات متغيرة
درجة الحرارة 22°درجة مئوية
الرطوبة 94%
ضغط 1015 hPa
الرؤية: 7000 متر
غيوم قليلة على ارتفاع 1000 قدم
غيوم مفككة على ارتفاع 2300 قدم

METAR: FCPP 180400Z VRB03KT 7000 FEW010 BKN023 22/21 Q1015 NOSIG

زمن: 06:03 (05:03 UTC)

توقعات

تاريخ ووقت الإصدار 6ساعات و 3 دقيقة قبل الساعة 23:00UTC
التوقعات صالحة من18 الساعة 00 UTC إلى 18 الساعة 24 UTC
ريح 4 عقدة من الجنوب
الرؤية: 7000 متر
غيوم متفرقة على ارتفاع 1000 قدم
غيوم مفككة على ارتفاع 2300 قدم
نظرية الاحتمالات 40%
من 18 الساعة 03 UTC إلى 18 الساعة 07 UTC
الرؤية: 3000 متر
غشاء

TAF: FCPP 172300Z 1800/1824 18004KT 7000 SCT010 BKN023 PROB40 1803/1807 3000 BR

أرصاد الطقس والتوقعات من أكثر من 4000 مطار (تقارير الطقس للمطار METAR والتنبؤ بالطقس بالمطارTAF).

المحطات المتاحة هي النقط الصفراء والحمراء على الخريطة.

حرك المؤشر فوق النقطة لمعرفة اسم المحطة.

ثم انقر لمعرفة أرصاد وتوقعات الطقس.

لتغيير الخارطة: اضغط على الأزرار الخضراء مع رمز الصليب الأسود للتكبير. على الزر الأخضر مع شرطة للتصغير، أو على الأسهم الخضراء للخرائط المجاورة.


METAR-TAF: